Latitude: N 50° 09' 49" Longitude: W 05° 11' 53" Elevation: 168m ASL

There are 11 visitors online

Adverts
Latest METAR Data

Below are the latest METARs ("Meteorological Services to Airmen Reports"), for RNAS Culdrose and Newquay Airport.

EGDR - RNAS Culdrose
Distance from station: SW 6mi, 9km
Updated: Thu, 19-Oct-2017 10:50am BST
Mostly Cloudy
Mostly Cloudy
 Wind from SSE
Wind: SSE 16 mph , 26 km/h
Temperature: 57°F , 14°C
Dew Point: 55°F , 13°C
Humidity: 94%
Barometer: 29.53 inHg , 1000 hPa
Clouds: Mostly Cloudy
Visibility: 6 miles , 10 km
Cloud details: Few Clouds 300 ft
Mostly Cloudy 500 ft
2017/10/19 09:50 EGDR 190950Z 16014KT 9999 FEW003 BKN005 14/13 Q1000 YLO1 TEMPO 2500 +RA FEW003 SCT004
EGHQ - Newquay Airport
Distance from station: NE 21mi, 34km
Updated: Thu, 19-Oct-2017 11:20am BST
Light rain, Showers, Few clouds
Light rain, Showers, Few clouds
 Wind from SSE
Wind: SSE 16 mph , 26 km/h
Temperature: 55°F , 13°C
Dew Point: 54°F , 12°C
Humidity: 94%
Barometer: 29.53 inHg , 1000 hPa
Summary: Light rain, Showers
Clouds: Few Clouds
Visibility: 6 miles , 10 km
Cloud details: Few Clouds 800 ft
2017/10/19 10:20 EGHQ 191020Z 15014KT 9999 -SHRA FEW008 13/12 Q1000
 
EGTE - Exeter Airport
Distance from station: ENE 88mi, 141km
Updated: Thu, 19-Oct-2017 11:20am BST
Light rain, Mist, Mostly cloudy
Light rain, Mist, Mostly cloudy
 Wind from S
Wind: S 10 mph , 17 km/h
Temperature: 59°F , 15°C
Dew Point: 57°F , 14°C
Humidity: 94%
Barometer: 29.56 inHg , 1001 hPa
Summary: Light rain, Mist
Clouds: Mostly Cloudy
Visibility: 2 miles , 4 km
Cloud details: Mostly Cloudy 600 ft
2017/10/19 10:20 EGTE 191020Z 17009KT 4000 -RA BR BKN006 15/14 Q1001
EGHE - St Marys, IOS
Distance from station: W 51mi, 82km
Updated: Thu, 19-Oct-2017 11:20am BST
Light rain, Mist, Mostly cloudy
Light rain, Mist, Mostly cloudy
 Wind from SSE
Wind: SSE 36 mph , 57 km/h
Temperature: 57°F , 14°C
Dew Point: 57°F , 14°C
Humidity: 100%
Barometer: 29.44 inHg , 997 hPa
Summary: Light rain, Mist
Clouds: Mostly Cloudy
Visibility: 2 miles , 4 km
Cloud details: Few Clouds 400 ft
Partly Cloudy 600 ft
Mostly Cloudy 1200 ft
2017/10/19 10:20 EGHE 191020Z 16031KT 4000 -RA BR FEW004 SCT006 BKN012 14/14 Q0997

Metar display script from Saratoga-Weather.org

UK - WEATHER STATION TOPSITES - UK World Weather Websites

This is a private weather station, never base important decisions or events on data from this weather station. Although every effort has been made to make the data as accurate as possible it does not meet MetOffice standards. It is proved as a guide of local weather conditions. We accept no liability for any loss which may arise from use of the data.

Copyright © Carnkie Weather 2009 - 2017.